Bejaja, Bejaia Soummam Airport (DAAE)

NameBejaia Soummam Airport
CityBejaja
CountryAlgeria
ICAODAAE
IATABJA
Altitude27 m
CoordinatesGoogle Map
Live Air TrafficLiveATC.net
METARDAAE 251700Z 24002KT 9999 FEW020 BKN040 20/16 Q1007
2020-04-25 17:00:00 Wind: Southwest (240°) 1.03 m/s - Visibility: > 10000 m - Temperature: 20 °C - Dew point: 16 °C - Humidity: 77.9% - Pressure: 1007 hPa

Sorry, no flights used the airport in this database.